createdAt,value
2023-03-16T00:00:36.778Z,4.44
2023-03-16T00:01:36.817Z,4.51
2023-03-16T00:02:36.772Z,4.48
2023-03-16T00:03:36.991Z,4.48
2023-03-16T00:04:36.757Z,4.47
2023-03-16T00:05:36.747Z,4.30
2023-03-16T00:06:36.759Z,4.24
2023-03-16T00:07:36.768Z,4.20
2023-03-16T00:08:36.741Z,4.00
2023-03-16T00:09:36.729Z,3.96
2023-03-16T00:10:36.740Z,4.09
2023-03-16T00:11:36.714Z,3.97
2023-03-16T00:12:36.709Z,4.04
2023-03-16T00:13:36.711Z,4.12
2023-03-16T00:14:36.703Z,4.15
2023-03-16T00:15:36.690Z,4.20
2023-03-16T00:16:36.717Z,4.27
2023-03-16T00:17:36.681Z,4.34
2023-03-16T00:18:36.681Z,4.36
2023-03-16T00:19:36.669Z,4.40
2023-03-16T00:20:36.664Z,4.29
2023-03-16T00:21:36.655Z,4.29
2023-03-16T00:22:36.658Z,4.26
2023-03-16T00:23:36.676Z,4.27
2023-03-16T00:24:36.641Z,4.33
2023-03-16T00:25:36.643Z,4.30
2023-03-16T00:26:36.630Z,4.24
2023-03-16T00:27:36.622Z,4.27
2023-03-16T00:28:36.620Z,4.20
2023-03-16T00:29:36.609Z,4.32
2023-03-16T00:30:36.618Z,4.27
2023-03-16T00:31:36.641Z,4.27
2023-03-16T00:32:36.735Z,4.30
2023-03-16T00:33:36.582Z,4.41
2023-03-16T00:34:36.579Z,4.42
2023-03-16T00:35:36.584Z,4.48
2023-03-16T00:36:36.565Z,4.48
2023-03-16T00:37:36.603Z,4.55
2023-03-16T00:38:36.557Z,4.60
2023-03-16T00:39:36.572Z,4.58
2023-03-16T00:40:36.536Z,4.58
2023-03-16T00:41:36.536Z,4.58
2023-03-16T00:42:36.530Z,4.54
2023-03-16T00:43:36.528Z,4.54
2023-03-16T00:44:36.512Z,4.55
2023-03-16T00:45:36.620Z,4.50
2023-03-16T00:46:36.503Z,4.45
2023-03-16T00:47:36.499Z,4.47
2023-03-16T00:48:36.495Z,4.37
2023-03-16T00:49:36.499Z,4.30
2023-03-16T00:50:36.483Z,4.24
2023-03-16T00:51:36.531Z,4.29
2023-03-16T00:52:36.473Z,4.32
2023-03-16T00:53:36.464Z,4.24
2023-03-16T00:54:36.459Z,4.20
2023-03-16T00:55:36.484Z,4.15
2023-03-16T00:56:36.443Z,4.08
2023-03-16T00:57:36.453Z,3.93
2023-03-16T00:58:36.443Z,3.93
2023-03-16T00:59:36.428Z,4.05
2023-03-16T01:00:36.432Z,4.08
2023-03-16T01:01:36.481Z,4.08
2023-03-16T01:02:36.417Z,3.94
2023-03-16T01:03:36.502Z,3.93
2023-03-16T01:04:36.412Z,3.84
2023-03-16T01:05:36.398Z,3.90
2023-03-16T01:06:38.773Z,4.00
2023-03-16T01:07:36.387Z,3.94
2023-03-16T01:08:36.373Z,4.02
2023-03-16T01:09:36.372Z,4.04
2023-03-16T01:10:36.370Z,3.98
2023-03-16T01:11:36.384Z,3.97
2023-03-16T01:12:36.349Z,4.02
2023-03-16T01:13:36.345Z,4.05
2023-03-16T01:14:36.339Z,4.06
2023-03-16T01:15:36.342Z,3.94
2023-03-16T01:16:36.385Z,4.08
2023-03-16T01:17:36.330Z,4.09
2023-03-16T01:18:36.325Z,3.94
2023-03-16T01:19:36.311Z,4.00
2023-03-16T01:20:36.303Z,3.94
2023-03-16T01:21:36.301Z,4.00
2023-03-16T01:22:36.320Z,4.00
2023-03-16T01:23:36.289Z,3.84
2023-03-16T01:24:36.278Z,3.80
2023-03-16T01:25:36.290Z,3.87
2023-03-16T01:26:36.276Z,3.87
2023-03-16T01:27:36.292Z,3.86
2023-03-16T01:28:36.303Z,3.87
2023-03-16T01:29:36.281Z,3.87
2023-03-16T01:30:36.298Z,3.87
2023-03-16T01:31:36.239Z,3.94
2023-03-16T01:32:36.313Z,3.94
2023-03-16T01:33:36.242Z,4.08
2023-03-16T01:34:36.220Z,3.98
2023-03-16T01:35:36.325Z,3.90
2023-03-16T01:36:36.208Z,4.08
2023-03-16T01:37:36.202Z,3.93
2023-03-16T01:38:36.206Z,4.11
2023-03-16T01:39:36.194Z,4.09
2023-03-16T01:40:36.190Z,3.98
2023-03-16T01:41:36.179Z,4.09
2023-03-16T01:42:36.175Z,4.18
2023-03-16T01:43:36.193Z,3.97
2023-03-16T01:44:36.159Z,4.02
2023-03-16T01:45:36.158Z,3.90
2023-03-16T01:46:36.221Z,3.93
2023-03-16T01:47:36.149Z,3.88
2023-03-16T01:48:36.139Z,3.88
2023-03-16T01:49:36.143Z,3.87
2023-03-16T01:50:36.126Z,3.91
2023-03-16T01:51:36.136Z,3.90
2023-03-16T01:52:36.122Z,3.97
2023-03-16T01:53:36.112Z,3.90
2023-03-16T01:54:36.118Z,3.93
2023-03-16T01:55:36.095Z,4.05
2023-03-16T01:56:36.094Z,4.05
2023-03-16T01:57:36.099Z,3.93
2023-03-16T01:58:36.078Z,3.90
2023-03-16T01:59:36.119Z,3.88
2023-03-16T02:00:36.082Z,3.88
2023-03-16T02:01:36.131Z,3.73
2023-03-16T02:02:36.054Z,3.70
2023-03-16T02:03:36.049Z,3.76
2023-03-16T02:04:36.135Z,3.76
2023-03-16T02:05:36.038Z,3.86
2023-03-16T02:06:36.028Z,3.78
2023-03-16T02:07:36.029Z,3.84
2023-03-16T02:08:36.013Z,3.76
2023-03-16T02:09:36.027Z,3.79
2023-03-16T02:10:36.011Z,3.75
2023-03-16T02:11:36.001Z,3.70
2023-03-16T02:12:35.988Z,3.62
2023-03-16T02:13:35.988Z,3.62
2023-03-16T02:14:35.981Z,3.61
2023-03-16T02:15:36.131Z,3.61
2023-03-16T02:16:35.965Z,3.68
2023-03-16T02:17:35.967Z,3.60
2023-03-16T02:18:35.959Z,3.62
2023-03-16T02:19:35.959Z,3.78
2023-03-16T02:20:35.946Z,3.65
2023-03-16T02:21:35.943Z,3.75
2023-03-16T02:22:35.944Z,3.84
2023-03-16T02:23:35.931Z,3.76
2023-03-16T02:24:35.930Z,3.75
2023-03-16T02:25:35.914Z,3.72
2023-03-16T02:26:35.909Z,3.68
2023-03-16T02:27:35.907Z,3.61
2023-03-16T02:28:35.906Z,3.62
2023-03-16T02:29:35.894Z,3.60
2023-03-16T02:30:35.883Z,3.62
2023-03-16T02:31:36.022Z,3.69
2023-03-16T02:32:35.943Z,3.69
2023-03-16T02:33:35.872Z,3.72
2023-03-16T02:34:35.858Z,3.76
2023-03-16T02:35:35.956Z,3.70
2023-03-16T02:36:35.852Z,3.70
2023-03-16T02:37:35.855Z,3.62
2023-03-16T02:38:35.836Z,3.65
2023-03-16T02:39:35.837Z,3.55
2023-03-16T02:40:35.826Z,3.51
2023-03-16T02:41:35.823Z,3.58
2023-03-16T02:42:35.812Z,3.61
2023-03-16T02:43:35.806Z,3.55
2023-03-16T02:44:35.794Z,3.52
2023-03-16T02:45:35.792Z,3.58
2023-03-16T02:46:36.050Z,3.60
2023-03-16T02:47:35.818Z,3.60
2023-03-16T02:48:35.777Z,3.60
2023-03-16T02:49:35.775Z,3.60
2023-03-16T02:50:35.769Z,3.73
2023-03-16T02:51:35.760Z,3.75
2023-03-16T02:52:35.751Z,3.70
2023-03-16T02:53:35.743Z,3.73
2023-03-16T02:54:35.749Z,3.79
2023-03-16T02:55:35.737Z,3.75
2023-03-16T02:56:35.721Z,3.69
2023-03-16T02:57:35.752Z,3.70
2023-03-16T02:58:35.710Z,3.70
2023-03-16T02:59:35.714Z,3.57
2023-03-16T03:00:35.696Z,3.60
2023-03-16T03:01:35.713Z,3.57
2023-03-16T03:02:35.692Z,3.42
2023-03-16T03:03:35.781Z,3.33
2023-03-16T03:04:35.683Z,3.35
2023-03-16T03:05:35.677Z,3.32
2023-03-16T03:06:35.662Z,3.23
2023-03-16T03:07:35.673Z,3.15
2023-03-16T03:08:35.649Z,3.11
2023-03-16T03:09:35.646Z,3.26
2023-03-16T03:10:35.642Z,3.15
2023-03-16T03:11:35.642Z,3.23
2023-03-16T03:12:35.620Z,3.15
2023-03-16T03:13:35.628Z,3.15
2023-03-16T03:14:35.621Z,3.17
2023-03-16T03:15:35.620Z,3.15
2023-03-16T03:16:35.670Z,3.00
2023-03-16T03:17:35.596Z,3.05
2023-03-16T03:18:35.591Z,2.93
2023-03-16T03:19:35.613Z,2.90
2023-03-16T03:20:35.601Z,2.97
2023-03-16T03:21:35.571Z,2.84
2023-03-16T03:22:35.561Z,2.95
2023-03-16T03:23:35.563Z,2.89
2023-03-16T03:24:35.553Z,2.89
2023-03-16T03:25:35.546Z,2.90
2023-03-16T03:26:35.540Z,2.97
2023-03-16T03:27:35.668Z,3.00
2023-03-16T03:28:35.537Z,3.03
2023-03-16T03:29:35.536Z,3.02
2023-03-16T03:30:35.514Z,3.02
2023-03-16T03:31:35.550Z,2.97
2023-03-16T03:32:35.579Z,3.14
2023-03-16T03:33:35.504Z,3.05
2023-03-16T03:34:35.491Z,2.99
2023-03-16T03:35:35.657Z,2.93
2023-03-16T03:36:35.566Z,2.87
2023-03-16T03:37:35.470Z,2.97
2023-03-16T03:38:35.471Z,2.90
2023-03-16T03:39:35.461Z,3.02
2023-03-16T03:40:35.447Z,2.99
2023-03-16T03:41:35.446Z,3.00
2023-03-16T03:42:35.438Z,2.93
2023-03-16T03:43:35.437Z,2.97
2023-03-16T03:44:35.421Z,2.99
2023-03-16T03:45:35.437Z,2.93
2023-03-16T03:46:35.590Z,2.95
2023-03-16T03:47:35.413Z,2.92
2023-03-16T03:48:35.421Z,2.89
2023-03-16T03:49:35.400Z,2.92
2023-03-16T03:50:35.384Z,2.92
2023-03-16T03:51:35.416Z,2.85
2023-03-16T03:52:35.376Z,2.74
2023-03-16T03:53:35.372Z,2.75
2023-03-16T03:54:35.361Z,2.74
2023-03-16T03:55:35.365Z,2.74
2023-03-16T03:56:35.349Z,2.77
2023-03-16T03:57:35.342Z,2.78
2023-03-16T03:58:35.342Z,2.92
2023-03-16T03:59:35.333Z,2.82
2023-03-16T04:00:35.319Z,2.90
2023-03-16T04:01:35.332Z,2.90
2023-03-16T04:02:35.514Z,2.93
2023-03-16T04:03:35.394Z,2.95
2023-03-16T04:04:35.309Z,2.89
2023-03-16T04:05:35.296Z,2.77
2023-03-16T04:06:35.353Z,2.72
2023-03-16T04:07:35.317Z,2.67
2023-03-16T04:08:35.276Z,2.72
2023-03-16T04:09:35.276Z,2.75
2023-03-16T04:10:35.261Z,2.71
2023-03-16T04:11:35.282Z,2.75
2023-03-16T04:12:35.296Z,2.59
2023-03-16T04:13:35.240Z,2.59
2023-03-16T04:14:35.232Z,2.57
2023-03-16T04:15:35.228Z,2.52
2023-03-16T04:16:35.316Z,2.49
2023-03-16T04:17:35.244Z,2.52
2023-03-16T04:18:37.861Z,2.54
2023-03-16T04:19:35.215Z,2.48
2023-03-16T04:20:35.212Z,2.46
2023-03-16T04:21:35.194Z,2.49
2023-03-16T04:22:35.185Z,2.54
2023-03-16T04:23:35.201Z,2.53
2023-03-16T04:24:35.168Z,2.42
2023-03-16T04:25:35.166Z,2.49
2023-03-16T04:26:35.174Z,2.54
2023-03-16T04:27:35.157Z,2.49
2023-03-16T04:28:35.151Z,2.36
2023-03-16T04:29:35.137Z,2.46
2023-03-16T04:30:35.188Z,2.35
2023-03-16T04:31:35.133Z,2.34
2023-03-16T04:32:35.178Z,2.30
2023-03-16T04:33:35.120Z,2.27
2023-03-16T04:34:35.127Z,2.25
2023-03-16T04:35:35.177Z,2.28
2023-03-16T04:36:35.094Z,2.30
2023-03-16T04:37:35.090Z,2.35
2023-03-16T04:38:35.078Z,2.39
2023-03-16T04:39:35.108Z,2.39
2023-03-16T04:40:35.066Z,2.53
2023-03-16T04:41:35.063Z,2.63
2023-03-16T04:42:35.058Z,2.56
2023-03-16T04:43:35.052Z,2.60
2023-03-16T04:44:35.041Z,2.53
2023-03-16T04:45:35.035Z,2.52
2023-03-16T04:46:35.095Z,2.54
2023-03-16T04:47:35.023Z,2.54
2023-03-16T04:48:35.019Z,2.48
2023-03-16T04:51:57.618Z,2.42
2023-03-16T04:52:57.604Z,2.38
2023-03-16T04:53:57.607Z,2.31
2023-03-16T04:54:57.644Z,2.27
2023-03-16T04:55:57.591Z,2.42
2023-03-16T04:56:57.578Z,2.42
2023-03-16T04:57:57.578Z,2.35
2023-03-16T04:58:57.562Z,2.35
2023-03-16T04:59:57.577Z,2.36
2023-03-16T05:00:57.551Z,2.39
2023-03-16T05:01:57.606Z,2.34
2023-03-16T05:02:57.545Z,2.34
2023-03-16T05:03:59.599Z,2.30
2023-03-16T05:04:57.528Z,2.31
2023-03-16T05:05:57.615Z,2.30
2023-03-16T05:06:57.510Z,2.39
2023-03-16T05:07:57.512Z,2.28
2023-03-16T05:08:57.493Z,2.23
2023-03-16T05:09:57.500Z,2.27
2023-03-16T05:10:57.516Z,2.18
2023-03-16T05:11:57.483Z,2.12
2023-03-16T05:12:57.470Z,2.10
2023-03-16T05:13:57.465Z,2.09
2023-03-16T05:14:57.465Z,2.18
2023-03-16T05:15:57.528Z,2.25
2023-03-16T05:16:57.444Z,2.20
2023-03-16T05:17:57.444Z,2.24
2023-03-16T05:18:57.432Z,2.17
2023-03-16T05:19:57.434Z,2.12
2023-03-16T05:20:57.422Z,2.18
2023-03-16T05:21:57.435Z,2.14
2023-03-16T05:22:57.447Z,2.14
2023-03-16T05:23:57.400Z,2.14
2023-03-16T05:24:57.391Z,2.25
2023-03-16T05:25:57.403Z,2.21
2023-03-16T05:26:57.414Z,2.16
2023-03-16T05:27:57.384Z,2.24
2023-03-16T05:28:57.366Z,2.14
2023-03-16T05:29:57.362Z,2.17
2023-03-16T05:30:57.389Z,2.18
2023-03-16T05:31:57.347Z,2.16
2023-03-16T05:32:57.379Z,2.14
2023-03-16T05:33:57.344Z,2.16
2023-03-16T05:34:57.328Z,2.16
2023-03-16T05:35:57.351Z,2.03
2023-03-16T05:36:57.311Z,2.00
2023-03-16T05:37:57.310Z,1.99
2023-03-16T05:38:57.301Z,1.99
2023-03-16T05:39:57.296Z,2.03
2023-03-16T05:40:57.289Z,1.99
2023-03-16T05:41:57.285Z,1.99
2023-03-16T05:42:57.319Z,2.02
2023-03-16T05:43:57.273Z,2.02
2023-03-16T05:44:57.269Z,2.02
2023-03-16T05:45:57.257Z,2.09
2023-03-16T05:46:57.369Z,1.99
2023-03-16T05:47:57.247Z,2.00
2023-03-16T05:48:57.241Z,2.07
2023-03-16T05:49:57.231Z,2.06
2023-03-16T05:50:57.226Z,2.09
2023-03-16T05:51:57.224Z,2.16
2023-03-16T05:52:57.230Z,2.07
2023-03-16T05:53:57.205Z,2.07
2023-03-16T05:54:57.199Z,2.07
2023-03-16T05:55:57.190Z,2.10
2023-03-16T05:56:57.184Z,2.14
2023-03-16T05:57:57.182Z,2.17
2023-03-16T05:58:57.210Z,2.24
2023-03-16T05:59:57.164Z,2.25
2023-03-16T06:00:57.156Z,2.24
2023-03-16T06:01:57.150Z,2.24
2023-03-16T06:02:57.229Z,2.31
2023-03-16T06:03:57.172Z,2.36
2023-03-16T06:04:57.131Z,2.36
2023-03-16T06:05:57.124Z,2.48
2023-03-16T06:06:57.117Z,2.53
2023-03-16T06:07:57.119Z,2.42
2023-03-16T06:08:57.100Z,2.39
2023-03-16T06:09:57.097Z,2.56
2023-03-16T06:10:57.098Z,2.53
2023-03-16T06:11:57.081Z,2.54
2023-03-16T06:12:58.960Z,2.54
2023-03-16T06:13:57.072Z,2.60
2023-03-16T06:14:57.091Z,2.72
2023-03-16T06:15:57.087Z,2.78
2023-03-16T06:16:57.056Z,2.84
2023-03-16T06:17:57.059Z,2.96
2023-03-16T06:18:59.661Z,3.05
2023-03-16T06:19:57.037Z,3.15
2023-03-16T06:20:57.025Z,3.23
2023-03-16T06:21:57.037Z,3.26
2023-03-16T06:22:57.010Z,3.28
2023-03-16T06:23:57.005Z,3.43
2023-03-16T06:24:57.017Z,3.47
2023-03-16T06:25:56.998Z,3.60
2023-03-16T06:26:56.983Z,3.58
2023-03-16T06:27:56.982Z,3.61
2023-03-16T06:28:56.973Z,3.66
2023-03-16T06:29:56.968Z,3.75
2023-03-16T06:30:56.978Z,3.86
2023-03-16T06:31:56.987Z,3.86
2023-03-16T06:32:57.047Z,3.91
2023-03-16T06:33:56.940Z,4.05
2023-03-16T06:34:56.934Z,4.06
2023-03-16T06:35:56.932Z,4.12
2023-03-16T06:36:56.921Z,4.14
2023-03-16T06:37:56.917Z,4.16
2023-03-16T06:38:56.921Z,4.22
2023-03-16T06:39:56.916Z,4.26
2023-03-16T06:40:56.903Z,4.30
2023-03-16T06:41:56.893Z,4.34
2023-03-16T06:42:56.885Z,4.50
2023-03-16T06:43:56.878Z,4.52
2023-03-16T06:44:56.879Z,4.62
2023-03-16T06:45:56.917Z,4.73
2023-03-16T06:46:56.884Z,4.77
2023-03-16T06:47:56.861Z,4.85
2023-03-16T06:48:56.850Z,4.82
2023-03-16T06:49:56.848Z,4.88
2023-03-16T06:50:56.834Z,5.00
2023-03-16T06:51:56.829Z,5.03
2023-03-16T06:52:56.827Z,5.02
2023-03-16T06:53:56.820Z,5.04
2023-03-16T06:54:56.810Z,5.06
2023-03-16T06:55:56.815Z,5.13
2023-03-16T06:56:56.803Z,5.21
2023-03-16T06:57:56.801Z,5.24
2023-03-16T06:58:56.791Z,5.25
2023-03-16T06:59:56.789Z,5.28
2023-03-16T07:00:56.813Z,5.36
2023-03-16T07:01:56.775Z,5.48
2023-03-16T07:02:58.418Z,5.46
2023-03-16T07:03:56.794Z,5.54
2023-03-16T07:04:56.753Z,5.58
2023-03-16T07:05:56.754Z,5.65
2023-03-16T07:06:56.752Z,5.67
2023-03-16T07:07:56.736Z,5.68
2023-03-16T07:08:56.729Z,5.76
2023-03-16T07:09:56.734Z,5.82
2023-03-16T07:10:56.714Z,5.89
2023-03-16T07:11:56.717Z,5.96
2023-03-16T07:12:56.704Z,5.90
2023-03-16T07:13:56.705Z,5.96
2023-03-16T07:14:56.704Z,6.04
2023-03-16T07:15:56.697Z,6.19
2023-03-16T07:16:56.750Z,6.22
2023-03-16T07:17:56.682Z,6.37
2023-03-16T07:18:56.693Z,6.51
2023-03-16T07:19:56.672Z,6.67
2023-03-16T07:20:56.660Z,6.62
2023-03-16T07:21:56.659Z,6.84
2023-03-16T07:22:56.654Z,6.89
2023-03-16T07:23:56.654Z,7.06
2023-03-16T07:24:56.646Z,7.09
2023-03-16T07:25:56.644Z,7.31
2023-03-16T07:26:56.633Z,7.32
2023-03-16T07:27:56.635Z,7.53
2023-03-16T07:28:58.135Z,7.72
2023-03-16T07:29:56.623Z,7.92
2023-03-16T07:31:03.803Z,8.12
2023-03-16T07:31:56.619Z,8.43
2023-03-16T07:32:56.680Z,8.73
2023-03-16T07:33:56.599Z,9.46
2023-03-16T07:34:58.190Z,10.09
2023-03-16T07:35:56.690Z,11.00
2023-03-16T07:36:56.592Z,11.83
2023-03-16T07:37:56.593Z,12.83
2023-03-16T07:38:56.576Z,13.75
2023-03-16T07:39:56.577Z,14.47
2023-03-16T07:40:56.571Z,15.10
2023-03-16T07:41:56.566Z,15.72
2023-03-16T07:42:56.561Z,16.21
2023-03-16T07:43:56.559Z,16.64
2023-03-16T07:44:56.557Z,17.25
2023-03-16T07:45:56.607Z,17.66
2023-03-16T07:46:56.553Z,17.86
2023-03-16T07:47:56.549Z,18.35
2023-03-16T07:48:56.543Z,18.52
2023-03-16T07:49:56.557Z,18.65
2023-03-16T07:50:56.563Z,18.87
2023-03-16T07:51:56.539Z,18.98
2023-03-16T07:52:56.534Z,19.26
2023-03-16T07:53:56.533Z,19.31
2023-03-16T07:54:56.526Z,19.66
2023-03-16T07:55:56.542Z,19.86
2023-03-16T07:56:56.525Z,19.96
2023-03-16T07:57:56.527Z,20.33
2023-03-16T07:58:56.522Z,20.59
2023-03-16T07:59:56.526Z,20.54
2023-03-16T08:00:56.522Z,20.50
2023-03-16T08:01:56.538Z,20.70
2023-03-16T08:02:56.517Z,20.97
2023-03-16T08:03:56.555Z,20.69
2023-03-16T08:04:56.519Z,20.77
2023-03-16T08:05:56.521Z,21.12
2023-03-16T08:06:56.536Z,21.19
2023-03-16T08:07:56.517Z,21.25
2023-03-16T08:08:56.518Z,21.21
2023-03-16T08:09:56.520Z,21.19
2023-03-16T08:10:56.803Z,20.99
2023-03-16T08:11:56.522Z,21.25
2023-03-16T08:12:56.568Z,21.43
2023-03-16T08:13:56.528Z,21.40
2023-03-16T08:17:39.811Z,21.53
2023-03-16T08:18:39.825Z,21.77
2023-03-16T08:19:39.817Z,21.88
2023-03-16T08:20:39.817Z,21.82
2023-03-16T08:21:53.129Z,22.06
2023-03-16T08:22:39.851Z,22.21
2023-03-16T08:23:39.824Z,21.96
2023-03-16T08:24:39.822Z,21.99
2023-03-16T08:25:39.812Z,22.45
2023-03-16T08:26:39.821Z,22.57
2023-03-16T08:27:39.818Z,22.61
2023-03-16T08:28:39.873Z,22.62
2023-03-16T08:29:39.820Z,22.42
2023-03-16T08:30:39.824Z,22.21
2023-03-16T08:31:39.900Z,22.28
2023-03-16T08:32:40.078Z,22.49
2023-03-16T08:33:39.833Z,22.85
2023-03-16T08:34:39.830Z,23.28
2023-03-16T08:35:39.852Z,23.51
2023-03-16T08:36:39.839Z,23.66
2023-03-16T08:37:39.829Z,23.83
2023-03-16T08:38:39.867Z,24.08
2023-03-16T08:39:39.834Z,24.28
2023-03-16T08:40:39.836Z,24.18
2023-03-16T08:41:39.844Z,23.36
2023-03-16T08:42:39.839Z,23.00
2023-03-16T08:43:39.840Z,23.36
2023-03-16T08:44:39.864Z,23.73
2023-03-16T08:45:39.845Z,23.73
2023-03-16T08:46:39.938Z,24.05
2023-03-16T08:47:39.849Z,24.39
2023-03-16T08:48:39.856Z,24.20
2023-03-16T08:49:39.879Z,24.13
2023-03-16T08:50:39.863Z,24.25
2023-03-16T08:51:39.865Z,24.40
2023-03-16T08:52:39.860Z,24.43
2023-03-16T08:53:39.863Z,24.39
2023-03-16T08:54:39.899Z,24.34
2023-03-16T08:55:39.871Z,24.60
2023-03-16T08:56:39.926Z,24.93
2023-03-16T08:57:39.905Z,25.06
2023-03-16T08:58:39.881Z,24.67
2023-03-16T08:59:39.887Z,24.58
2023-03-16T09:00:39.892Z,24.68
2023-03-16T09:01:39.956Z,24.67
2023-03-16T09:02:39.894Z,24.58
2023-03-16T09:03:39.898Z,24.49
2023-03-16T09:04:40.045Z,24.18
2023-03-16T09:05:39.905Z,24.10
2023-03-16T09:06:39.917Z,24.15
2023-03-16T09:07:39.935Z,24.21
2023-03-16T09:08:39.924Z,24.49
2023-03-16T09:09:39.926Z,24.87
2023-03-16T09:10:40.044Z,24.98
2023-03-16T09:11:39.929Z,25.05
2023-03-16T09:12:39.944Z,24.80
2023-03-16T09:13:39.948Z,24.84
2023-03-16T09:14:39.950Z,25.03
2023-03-16T09:15:39.947Z,24.60
2023-03-16T09:16:39.984Z,25.05
2023-03-16T09:17:39.949Z,25.17
2023-03-16T09:18:40.026Z,25.00
2023-03-16T09:19:51.109Z,24.81
2023-03-16T09:20:40.377Z,24.47
2023-03-16T09:21:39.966Z,24.21
2023-03-16T09:22:39.972Z,23.72
2023-03-16T09:23:39.968Z,24.03
2023-03-16T09:24:39.979Z,24.35
2023-03-16T09:25:40.010Z,24.27
2023-03-16T09:26:40.070Z,24.81
2023-03-16T09:27:39.982Z,24.85
2023-03-16T09:28:39.992Z,24.76
2023-03-16T09:29:39.982Z,24.84
2023-03-16T09:30:39.990Z,23.70
2023-03-16T09:31:40.068Z,23.75
2023-03-16T09:32:40.056Z,23.94
2023-03-16T09:33:40.031Z,24.08
2023-03-16T09:34:40.036Z,24.58
2023-03-16T09:35:40.091Z,23.98
2023-03-16T09:36:40.000Z,23.97
2023-03-16T09:37:45.460Z,24.25
2023-03-16T09:38:40.002Z,23.61
2023-03-16T09:39:40.006Z,23.31
2023-03-16T09:40:40.048Z,22.64
2023-03-16T09:41:40.018Z,22.51
2023-03-16T09:42:40.036Z,22.54
2023-03-16T09:43:40.012Z,22.60
2023-03-16T09:44:40.020Z,22.52
2023-03-16T09:45:40.056Z,22.27
2023-03-16T09:46:40.024Z,22.18
2023-03-16T09:47:40.015Z,21.49
2023-03-16T09:48:40.023Z,21.62
2023-03-16T09:49:40.009Z,21.40
2023-03-16T09:50:48.437Z,21.13
2023-03-16T09:51:40.015Z,20.91
2023-03-16T09:52:40.026Z,20.85
2023-03-16T09:53:40.038Z,20.67
2023-03-16T09:54:40.042Z,20.35
2023-03-16T09:55:40.017Z,20.42
2023-03-16T09:56:40.017Z,20.61
2023-03-16T09:57:40.021Z,20.57
2023-03-16T09:58:40.067Z,20.13
2023-03-16T09:59:40.038Z,20.16
2023-03-16T10:00:40.044Z,19.96
2023-03-16T10:01:40.014Z,19.94
2023-03-16T10:02:40.020Z,19.68
2023-03-16T10:03:40.038Z,19.33
2023-03-16T10:04:40.031Z,19.29
2023-03-16T10:05:40.026Z,19.31
2023-03-16T10:07:13.226Z,19.26
2023-03-16T10:08:13.230Z,18.99
2023-03-16T10:09:13.235Z,18.92
2023-03-16T10:09:40.023Z,19.08
2023-03-16T10:10:40.019Z,18.94
2023-03-16T10:11:40.047Z,19.02
2023-03-16T10:12:40.021Z,19.13
2023-03-16T10:13:40.026Z,18.98
2023-03-16T10:14:40.113Z,18.69
2023-03-16T10:15:40.034Z,18.65
2023-03-16T10:16:40.173Z,18.42
2023-03-16T10:17:40.028Z,18.48
2023-03-16T10:18:40.033Z,18.33
2023-03-16T10:19:40.028Z,18.12
2023-03-16T10:20:40.021Z,17.89
2023-03-16T10:21:40.042Z,17.84
2023-03-16T10:22:40.018Z,17.71
2023-03-16T10:23:40.962Z,17.74
2023-03-16T10:24:40.033Z,17.78
2023-03-16T10:25:40.042Z,17.77
2023-03-16T10:26:40.024Z,17.78
2023-03-16T10:27:40.026Z,17.70
2023-03-16T10:28:40.035Z,17.41
2023-03-16T10:29:40.043Z,17.15
2023-03-16T10:30:40.854Z,17.01
2023-03-16T10:31:40.076Z,17.18
2023-03-16T10:32:40.096Z,17.41
2023-03-16T10:33:40.023Z,17.33
2023-03-16T10:34:40.021Z,17.16
2023-03-16T10:35:40.026Z,17.14
2023-03-16T10:36:40.069Z,16.98
2023-03-16T10:37:40.046Z,17.16
2023-03-16T10:38:40.026Z,17.48
2023-03-16T10:39:40.030Z,17.71
2023-03-16T10:40:40.024Z,17.75
2023-03-16T10:41:40.025Z,17.92
2023-03-16T10:42:40.012Z,17.96
2023-03-16T10:43:40.024Z,17.87
2023-03-16T10:44:40.021Z,17.86
2023-03-16T10:45:40.086Z,18.08
2023-03-16T10:46:40.269Z,18.27
2023-03-16T10:47:40.033Z,18.37
2023-03-16T10:48:40.020Z,18.30
2023-03-16T10:49:40.023Z,18.54
2023-03-16T10:50:40.016Z,18.35
2023-03-16T10:51:40.025Z,18.10
2023-03-16T10:52:40.009Z,18.05
2023-03-16T10:53:40.016Z,18.07
2023-03-16T10:54:40.022Z,18.08
2023-03-16T10:55:40.025Z,18.26
2023-03-16T10:56:40.017Z,18.44
2023-03-16T10:57:40.022Z,18.65
2023-03-16T10:58:40.021Z,18.81
2023-03-16T10:59:40.020Z,18.87
2023-03-16T11:00:40.019Z,18.65
2023-03-16T11:01:40.092Z,18.51
2023-03-16T11:02:40.037Z,18.60
2023-03-16T11:03:40.033Z,18.57
2023-03-16T11:04:40.104Z,18.12
2023-03-16T11:05:40.038Z,18.20
2023-03-16T11:06:40.023Z,17.79
2023-03-16T11:07:40.022Z,17.46
2023-03-16T11:08:40.021Z,17.34
2023-03-16T11:09:40.022Z,17.18
2023-03-16T11:10:49.328Z,16.66
2023-03-16T11:11:40.027Z,16.52
2023-03-16T11:12:40.017Z,16.66
2023-03-16T11:13:40.027Z,16.67
2023-03-16T11:14:40.012Z,16.85
2023-03-16T11:15:40.040Z,16.97
2023-03-16T11:16:40.177Z,17.11
2023-03-16T11:17:40.035Z,17.38
2023-03-16T11:18:40.057Z,17.38
2023-03-16T11:19:40.022Z,17.55
2023-03-16T11:20:40.014Z,17.71
2023-03-16T11:21:40.027Z,17.59
2023-03-16T11:22:40.017Z,17.66
2023-03-16T11:23:40.016Z,17.86
2023-03-16T11:24:40.026Z,17.63
2023-03-16T11:25:40.025Z,17.59
2023-03-16T11:26:40.013Z,17.41
2023-03-16T11:27:40.014Z,17.46
2023-03-16T11:28:40.019Z,17.71
2023-03-16T11:29:40.016Z,17.46
2023-03-16T11:30:40.018Z,17.44
2023-03-16T11:31:40.021Z,17.15
2023-03-16T11:32:40.062Z,17.08
2023-03-16T11:33:40.025Z,17.03
2023-03-16T11:34:40.035Z,16.73
2023-03-16T11:35:46.576Z,16.07
2023-03-16T11:36:40.039Z,15.93
2023-03-16T11:37:40.016Z,15.92
2023-03-16T11:38:40.008Z,16.21
2023-03-16T11:39:40.019Z,16.64
2023-03-16T11:40:40.057Z,17.11
2023-03-16T11:41:40.016Z,17.43
2023-03-16T11:42:40.029Z,17.46
2023-03-16T11:43:40.016Z,17.15
2023-03-16T11:44:40.005Z,17.19
2023-03-16T11:45:40.017Z,17.41
2023-03-16T11:46:40.017Z,17.55
2023-03-16T11:47:40.018Z,17.62
2023-03-16T11:48:40.010Z,17.72
2023-03-16T11:49:40.018Z,17.58
2023-03-16T11:50:40.034Z,17.66
2023-03-16T11:51:42.161Z,17.78
2023-03-16T11:52:39.998Z,17.93
2023-03-16T11:53:40.007Z,17.97
2023-03-16T11:54:40.011Z,17.82
2023-03-16T11:55:40.015Z,17.82
2023-03-16T11:56:39.999Z,17.84
2023-03-16T11:57:40.028Z,17.55
2023-03-16T11:58:40.006Z,17.44
2023-03-16T11:59:42.371Z,17.44
2023-03-16T12:00:39.998Z,17.46
2023-03-16T12:01:45.109Z,17.38
2023-03-16T12:02:40.146Z,17.14
2023-03-16T12:03:40.192Z,17.08
2023-03-16T12:04:39.998Z,17.18
2023-03-16T12:05:39.996Z,17.31
2023-03-16T12:06:40.033Z,17.46
2023-03-16T12:07:40.000Z,17.55
2023-03-16T12:08:39.988Z,17.54
2023-03-16T12:11:57.633Z,17.49
2023-03-16T12:12:57.605Z,17.51
2023-03-16T12:13:57.605Z,17.40
2023-03-16T12:14:57.610Z,17.31
2023-03-16T12:15:57.644Z,17.18
2023-03-16T12:16:57.910Z,17.14
2023-03-16T12:17:57.599Z,16.97
2023-03-16T12:18:57.596Z,16.85
2023-03-16T12:19:57.624Z,16.67
2023-03-16T12:20:57.593Z,16.67
2023-03-16T12:21:57.642Z,16.64
2023-03-16T12:22:57.608Z,16.89
2023-03-16T12:23:57.592Z,16.85
2023-03-16T12:24:57.592Z,17.00
2023-03-16T12:25:57.594Z,16.98
2023-03-16T12:26:57.604Z,17.08
2023-03-16T12:27:57.604Z,17.28
2023-03-16T12:28:57.615Z,17.46
2023-03-16T12:29:57.595Z,17.54
2023-03-16T12:30:57.595Z,17.46
2023-03-16T12:31:57.599Z,17.55
2023-03-16T12:32:57.689Z,17.40
2023-03-16T12:33:57.595Z,17.33
2023-03-16T12:34:57.589Z,17.44
2023-03-16T12:35:57.712Z,17.43
2023-03-16T12:36:57.592Z,17.43
2023-03-16T12:37:57.621Z,17.41
2023-03-16T12:38:57.585Z,17.40
2023-03-16T12:39:57.597Z,17.33
2023-03-16T12:40:57.587Z,17.23
2023-03-16T12:41:57.608Z,17.07
2023-03-16T12:42:57.587Z,17.07
2023-03-16T12:43:57.639Z,17.16
2023-03-16T12:44:57.592Z,16.76
2023-03-16T12:45:57.668Z,16.39
2023-03-16T12:46:57.587Z,15.89
2023-03-16T12:47:57.590Z,16.04
2023-03-16T12:48:57.589Z,16.33
2023-03-16T12:49:57.589Z,16.57
2023-03-16T12:50:57.592Z,16.60
2023-03-16T12:51:57.593Z,16.64
2023-03-16T12:52:57.588Z,16.67
2023-03-16T12:53:57.613Z,16.68
2023-03-16T12:54:57.595Z,16.34
2023-03-16T12:55:57.592Z,16.14
2023-03-16T12:56:57.583Z,15.97
2023-03-16T12:57:57.586Z,15.94
2023-03-16T12:58:57.594Z,16.01
2023-03-16T12:59:57.584Z,16.04
2023-03-16T13:00:57.650Z,16.21
2023-03-16T13:01:57.593Z,16.23
2023-03-16T13:02:57.583Z,16.34
2023-03-16T13:03:57.618Z,16.39
2023-03-16T13:04:57.594Z,16.21
2023-03-16T13:05:57.594Z,16.42
2023-03-16T13:06:57.582Z,16.63
2023-03-16T13:07:57.596Z,16.58
2023-03-16T13:08:57.578Z,16.66
2023-03-16T13:09:57.623Z,16.17
2023-03-16T13:10:57.579Z,16.07
2023-03-16T13:11:57.591Z,16.00
2023-03-16T13:12:57.578Z,16.07
2023-03-16T13:13:57.584Z,15.90
2023-03-16T13:14:57.587Z,15.96